sensor_id;sensor_type;location;lat;lon;timestamp;P1;durP1;ratioP1;P2;durP2;ratioP2
7171;SDS011;3627;46.544;14.944;2023-05-07T00:00:51;7.05;;;4.85;;
7171;SDS011;3627;46.544;14.944;2023-05-07T00:03:18;8.85;;;4.90;;
7171;SDS011;3627;46.544;14.944;2023-05-07T00:05:45;8.25;;;4.40;;
7171;SDS011;3627;46.544;14.944;2023-05-07T00:08:11;4.68;;;3.90;;
7171;SDS011;3627;46.544;14.944;2023-05-07T00:10:38;4.75;;;4.35;;
7171;SDS011;3627;46.544;14.944;2023-05-07T00:13:04;5.47;;;4.18;;
7171;SDS011;3627;46.544;14.944;2023-05-07T00:15:31;5.65;;;3.97;;
7171;SDS011;3627;46.544;14.944;2023-05-07T00:17:58;4.00;;;3.60;;
7171;SDS011;3627;46.544;14.944;2023-05-07T00:20:25;4.35;;;3.95;;
7171;SDS011;3627;46.544;14.944;2023-05-07T00:22:51;4.28;;;3.88;;
7171;SDS011;3627;46.544;14.944;2023-05-07T00:25:18;4.40;;;3.90;;
7171;SDS011;3627;46.544;14.944;2023-05-07T00:27:45;6.63;;;3.90;;
7171;SDS011;3627;46.544;14.944;2023-05-07T00:30:12;5.75;;;3.70;;
7171;SDS011;3627;46.544;14.944;2023-05-07T00:32:38;4.68;;;3.92;;
7171;SDS011;3627;46.544;14.944;2023-05-07T00:35:07;4.80;;;4.40;;
7171;SDS011;3627;46.544;14.944;2023-05-07T00:37:33;4.15;;;3.65;;
7171;SDS011;3627;46.544;14.944;2023-05-07T00:40:00;4.47;;;4.07;;
7171;SDS011;3627;46.544;14.944;2023-05-07T00:42:29;4.80;;;4.40;;
7171;SDS011;3627;46.544;14.944;2023-05-07T00:44:57;5.05;;;4.05;;
7171;SDS011;3627;46.544;14.944;2023-05-07T00:47:23;5.43;;;4.30;;
7171;SDS011;3627;46.544;14.944;2023-05-07T00:49:51;4.75;;;4.32;;
7171;SDS011;3627;46.544;14.944;2023-05-07T00:52:19;4.85;;;4.35;;
7171;SDS011;3627;46.544;14.944;2023-05-07T00:54:46;4.90;;;4.10;;
7171;SDS011;3627;46.544;14.944;2023-05-07T00:57:13;4.68;;;4.20;;
7171;SDS011;3627;46.544;14.944;2023-05-07T00:59:40;4.72;;;4.32;;
7171;SDS011;3627;46.544;14.944;2023-05-07T01:02:07;5.22;;;4.72;;
7171;SDS011;3627;46.544;14.944;2023-05-07T01:04:33;4.88;;;4.35;;
7171;SDS011;3627;46.544;14.944;2023-05-07T01:07:00;4.70;;;4.28;;
7171;SDS011;3627;46.544;14.944;2023-05-07T01:09:28;4.50;;;4.10;;
7171;SDS011;3627;46.544;14.944;2023-05-07T01:11:55;4.43;;;4.03;;
7171;SDS011;3627;46.544;14.944;2023-05-07T01:14:22;4.30;;;3.90;;
7171;SDS011;3627;46.544;14.944;2023-05-07T01:16:49;5.03;;;4.57;;
7171;SDS011;3627;46.544;14.944;2023-05-07T01:19:16;6.28;;;5.25;;
7171;SDS011;3627;46.544;14.944;2023-05-07T01:21:45;6.67;;;4.60;;
7171;SDS011;3627;46.544;14.944;2023-05-07T01:24:13;5.47;;;4.75;;
7171;SDS011;3627;46.544;14.944;2023-05-07T01:26:40;5.47;;;4.70;;
7171;SDS011;3627;46.544;14.944;2023-05-07T01:29:06;5.47;;;4.97;;
7171;SDS011;3627;46.544;14.944;2023-05-07T01:31:32;6.05;;;5.50;;
7171;SDS011;3627;46.544;14.944;2023-05-07T01:33:59;6.15;;;5.20;;
7171;SDS011;3627;46.544;14.944;2023-05-07T01:36:27;6.13;;;5.53;;
7171;SDS011;3627;46.544;14.944;2023-05-07T01:38:55;6.05;;;5.45;;
7171;SDS011;3627;46.544;14.944;2023-05-07T01:41:24;7.22;;;5.57;;
7171;SDS011;3627;46.544;14.944;2023-05-07T01:43:50;6.10;;;5.35;;
7171;SDS011;3627;46.544;14.944;2023-05-07T01:46:18;6.25;;;5.65;;
7171;SDS011;3627;46.544;14.944;2023-05-07T01:48:44;6.75;;;5.82;;
7171;SDS011;3627;46.544;14.944;2023-05-07T01:51:11;7.60;;;5.80;;
7171;SDS011;3627;46.544;14.944;2023-05-07T01:53:37;6.38;;;5.72;;
7171;SDS011;3627;46.544;14.944;2023-05-07T01:56:04;6.28;;;5.68;;
7171;SDS011;3627;46.544;14.944;2023-05-07T01:58:32;7.10;;;5.55;;
7171;SDS011;3627;46.544;14.944;2023-05-07T02:00:58;8.68;;;6.55;;
7171;SDS011;3627;46.544;14.944;2023-05-07T02:03:25;7.85;;;6.47;;
7171;SDS011;3627;46.544;14.944;2023-05-07T02:05:51;8.70;;;6.60;;
7171;SDS011;3627;46.544;14.944;2023-05-07T02:08:18;9.60;;;6.72;;
7171;SDS011;3627;46.544;14.944;2023-05-07T02:10:44;9.70;;;6.93;;
7171;SDS011;3627;46.544;14.944;2023-05-07T02:13:10;6.63;;;5.88;;
7171;SDS011;3627;46.544;14.944;2023-05-07T02:15:38;7.85;;;6.55;;
7171;SDS011;3627;46.544;14.944;2023-05-07T02:18:06;6.68;;;5.70;;
7171;SDS011;3627;46.544;14.944;2023-05-07T02:20:32;7.18;;;4.82;;
7171;SDS011;3627;46.544;14.944;2023-05-07T02:22:59;5.70;;;5.07;;
7171;SDS011;3627;46.544;14.944;2023-05-07T02:25:26;6.15;;;5.25;;
7171;SDS011;3627;46.544;14.944;2023-05-07T02:27:52;6.35;;;5.05;;
7171;SDS011;3627;46.544;14.944;2023-05-07T02:30:19;6.82;;;5.03;;
7171;SDS011;3627;46.544;14.944;2023-05-07T02:32:47;6.85;;;5.57;;
7171;SDS011;3627;46.544;14.944;2023-05-07T02:35:13;6.57;;;5.07;;
7171;SDS011;3627;46.544;14.944;2023-05-07T02:37:40;5.57;;;5.05;;
7171;SDS011;3627;46.544;14.944;2023-05-07T02:40:07;5.90;;;5.30;;
7171;SDS011;3627;46.544;14.944;2023-05-07T02:42:33;4.95;;;4.45;;
7171;SDS011;3627;46.544;14.944;2023-05-07T02:45:00;5.00;;;4.50;;
7171;SDS011;3627;46.544;14.944;2023-05-07T02:47:26;4.93;;;4.15;;
7171;SDS011;3627;46.544;14.944;2023-05-07T02:49:55;5.28;;;4.78;;
7171;SDS011;3627;46.544;14.944;2023-05-07T02:52:21;4.95;;;4.43;;
7171;SDS011;3627;46.544;14.944;2023-05-07T02:54:47;4.80;;;4.30;;
7171;SDS011;3627;46.544;14.944;2023-05-07T02:57:14;4.82;;;4.38;;
7171;SDS011;3627;46.544;14.944;2023-05-07T02:59:41;6.53;;;4.43;;
7171;SDS011;3627;46.544;14.944;2023-05-07T03:02:07;5.28;;;4.15;;
7171;SDS011;3627;46.544;14.944;2023-05-07T03:04:33;4.22;;;3.83;;
7171;SDS011;3627;46.544;14.944;2023-05-07T03:07:01;6.25;;;4.20;;
7171;SDS011;3627;46.544;14.944;2023-05-07T03:09:28;6.22;;;5.63;;
7171;SDS011;3627;46.544;14.944;2023-05-07T03:11:54;5.00;;;4.45;;
7171;SDS011;3627;46.544;14.944;2023-05-07T03:14:20;5.80;;;4.57;;
7171;SDS011;3627;46.544;14.944;2023-05-07T03:16:47;4.25;;;3.85;;
7171;SDS011;3627;46.544;14.944;2023-05-07T03:19:13;5.63;;;4.32;;
7171;SDS011;3627;46.544;14.944;2023-05-07T03:21:39;5.18;;;4.28;;
7171;SDS011;3627;46.544;14.944;2023-05-07T03:24:07;7.13;;;5.32;;
7171;SDS011;3627;46.544;14.944;2023-05-07T03:26:34;6.45;;;4.80;;
7171;SDS011;3627;46.544;14.944;2023-05-07T03:29:00;5.30;;;4.47;;
7171;SDS011;3627;46.544;14.944;2023-05-07T03:31:26;6.30;;;5.13;;
7171;SDS011;3627;46.544;14.944;2023-05-07T03:33:54;5.47;;;4.97;;
7171;SDS011;3627;46.544;14.944;2023-05-07T03:36:21;6.72;;;4.72;;
7171;SDS011;3627;46.544;14.944;2023-05-07T03:38:48;5.85;;;4.93;;
7171;SDS011;3627;46.544;14.944;2023-05-07T03:41:16;5.45;;;4.47;;
7171;SDS011;3627;46.544;14.944;2023-05-07T03:43:42;6.35;;;5.03;;
7171;SDS011;3627;46.544;14.944;2023-05-07T03:46:08;5.32;;;4.72;;
7171;SDS011;3627;46.544;14.944;2023-05-07T03:48:35;7.38;;;5.47;;
7171;SDS011;3627;46.544;14.944;2023-05-07T03:51:01;5.82;;;5.13;;
7171;SDS011;3627;46.544;14.944;2023-05-07T03:53:27;8.98;;;5.47;;
7171;SDS011;3627;46.544;14.944;2023-05-07T03:55:54;5.50;;;4.95;;
7171;SDS011;3627;46.544;14.944;2023-05-07T03:58:21;5.68;;;5.07;;
7171;SDS011;3627;46.544;14.944;2023-05-07T04:00:48;5.35;;;4.85;;
7171;SDS011;3627;46.544;14.944;2023-05-07T04:03:14;6.10;;;5.15;;
7171;SDS011;3627;46.544;14.944;2023-05-07T04:05:41;6.38;;;5.13;;
7171;SDS011;3627;46.544;14.944;2023-05-07T04:08:07;5.75;;;5.22;;
7171;SDS011;3627;46.544;14.944;2023-05-07T04:10:34;6.30;;;5.15;;
7171;SDS011;3627;46.544;14.944;2023-05-07T04:13:00;6.30;;;5.68;;
7171;SDS011;3627;46.544;14.944;2023-05-07T04:15:28;7.25;;;5.88;;
7171;SDS011;3627;46.544;14.944;2023-05-07T04:17:54;7.03;;;6.05;;
7171;SDS011;3627;46.544;14.944;2023-05-07T04:20:20;6.57;;;5.38;;
7171;SDS011;3627;46.544;14.944;2023-05-07T04:22:47;6.18;;;5.40;;
7171;SDS011;3627;46.544;14.944;2023-05-07T04:25:13;6.38;;;5.13;;
7171;SDS011;3627;46.544;14.944;2023-05-07T04:27:40;6.30;;;5.07;;
7171;SDS011;3627;46.544;14.944;2023-05-07T04:30:07;7.35;;;5.40;;
7171;SDS011;3627;46.544;14.944;2023-05-07T04:32:35;10.18;;;6.22;;
7171;SDS011;3627;46.544;14.944;2023-05-07T04:35:02;7.07;;;5.80;;
7171;SDS011;3627;46.544;14.944;2023-05-07T04:37:28;7.72;;;6.25;;
7171;SDS011;3627;46.544;14.944;2023-05-07T04:39:55;10.02;;;6.07;;
7171;SDS011;3627;46.544;14.944;2023-05-07T04:42:21;9.13;;;5.65;;
7171;SDS011;3627;46.544;14.944;2023-05-07T04:44:47;7.97;;;6.10;;
7171;SDS011;3627;46.544;14.944;2023-05-07T04:47:18;7.00;;;5.82;;
7171;SDS011;3627;46.544;14.944;2023-05-07T04:49:46;7.53;;;6.15;;
7171;SDS011;3627;46.544;14.944;2023-05-07T04:52:12;8.68;;;5.93;;
7171;SDS011;3627;46.544;14.944;2023-05-07T04:54:39;7.70;;;5.75;;
7171;SDS011;3627;46.544;14.944;2023-05-07T04:57:05;6.32;;;5.70;;
7171;SDS011;3627;46.544;14.944;2023-05-07T04:59:31;6.68;;;5.40;;
7171;SDS011;3627;46.544;14.944;2023-05-07T05:01:58;6.63;;;5.35;;
7171;SDS011;3627;46.544;14.944;2023-05-07T05:04:25;6.80;;;5.65;;
7171;SDS011;3627;46.544;14.944;2023-05-07T05:06:52;8.55;;;5.97;;
7171;SDS011;3627;46.544;14.944;2023-05-07T05:09:19;6.68;;;5.68;;
7171;SDS011;3627;46.544;14.944;2023-05-07T05:11:45;6.72;;;5.63;;
7171;SDS011;3627;46.544;14.944;2023-05-07T05:14:11;7.13;;;5.72;;
7171;SDS011;3627;46.544;14.944;2023-05-07T05:16:38;8.05;;;5.63;;
7171;SDS011;3627;46.544;14.944;2023-05-07T05:19:04;7.63;;;5.90;;
7171;SDS011;3627;46.544;14.944;2023-05-07T05:21:30;8.57;;;6.00;;
7171;SDS011;3627;46.544;14.944;2023-05-07T05:23:59;7.80;;;5.82;;
7171;SDS011;3627;46.544;14.944;2023-05-07T05:26:25;6.53;;;5.72;;
7171;SDS011;3627;46.544;14.944;2023-05-07T05:28:51;7.07;;;5.60;;
7171;SDS011;3627;46.544;14.944;2023-05-07T05:31:18;9.38;;;5.82;;
7171;SDS011;3627;46.544;14.944;2023-05-07T05:33:44;7.10;;;5.90;;
7171;SDS011;3627;46.544;14.944;2023-05-07T05:36:11;6.25;;;5.65;;
7171;SDS011;3627;46.544;14.944;2023-05-07T05:38:38;7.60;;;5.63;;
7171;SDS011;3627;46.544;14.944;2023-05-07T05:41:06;7.35;;;6.03;;
7171;SDS011;3627;46.544;14.944;2023-05-07T05:43:32;6.55;;;5.78;;
7171;SDS011;3627;46.544;14.944;2023-05-07T05:45:58;5.85;;;5.25;;
7171;SDS011;3627;46.544;14.944;2023-05-07T05:48:25;5.95;;;5.35;;
7171;SDS011;3627;46.544;14.944;2023-05-07T05:50:51;5.78;;;4.80;;
7171;SDS011;3627;46.544;14.944;2023-05-07T05:53:18;7.68;;;4.97;;
7171;SDS011;3627;46.544;14.944;2023-05-07T05:55:44;6.05;;;5.15;;
7171;SDS011;3627;46.544;14.944;2023-05-07T05:58:12;6.20;;;5.00;;
7171;SDS011;3627;46.544;14.944;2023-05-07T06:00:40;5.82;;;5.15;;
7171;SDS011;3627;46.544;14.944;2023-05-07T06:03:06;7.28;;;4.93;;
7171;SDS011;3627;46.544;14.944;2023-05-07T06:05:33;6.05;;;5.13;;
7171;SDS011;3627;46.544;14.944;2023-05-07T06:07:59;5.65;;;4.90;;
7171;SDS011;3627;46.544;14.944;2023-05-07T06:10:25;5.38;;;4.85;;
7171;SDS011;3627;46.544;14.944;2023-05-07T06:12:52;4.95;;;4.45;;
7171;SDS011;3627;46.544;14.944;2023-05-07T06:15:20;6.20;;;5.10;;
7171;SDS011;3627;46.544;14.944;2023-05-07T06:20:57;7.07;;;4.95;;
7171;SDS011;3627;46.544;14.944;2023-05-07T06:23:24;5.88;;;5.10;;
7171;SDS011;3627;46.544;14.944;2023-05-07T06:25:50;7.07;;;5.10;;
7171;SDS011;3627;46.544;14.944;2023-05-07T06:28:17;4.93;;;4.35;;
7171;SDS011;3627;46.544;14.944;2023-05-07T06:30:45;5.18;;;4.65;;
7171;SDS011;3627;46.544;14.944;2023-05-07T06:33:11;4.22;;;3.92;;
7171;SDS011;3627;46.544;14.944;2023-05-07T06:35:37;4.68;;;3.60;;
7171;SDS011;3627;46.544;14.944;2023-05-07T06:38:04;4.90;;;4.40;;
7171;SDS011;3627;46.544;14.944;2023-05-07T06:40:30;4.75;;;4.30;;
7171;SDS011;3627;46.544;14.944;2023-05-07T06:42:57;5.85;;;4.60;;
7171;SDS011;3627;46.544;14.944;2023-05-07T06:45:23;4.85;;;4.35;;
7171;SDS011;3627;46.544;14.944;2023-05-07T06:47:51;5.68;;;4.03;;
7171;SDS011;3627;46.544;14.944;2023-05-07T06:50:17;6.50;;;4.00;;
7171;SDS011;3627;46.544;14.944;2023-05-07T06:52:44;5.30;;;4.80;;
7171;SDS011;3627;46.544;14.944;2023-05-07T06:55:10;5.78;;;4.10;;
7171;SDS011;3627;46.544;14.944;2023-05-07T06:57:37;6.57;;;4.00;;
7171;SDS011;3627;46.544;14.944;2023-05-07T07:00:04;5.90;;;4.40;;
7171;SDS011;3627;46.544;14.944;2023-05-07T07:02:32;5.00;;;3.92;;
7171;SDS011;3627;46.544;14.944;2023-05-07T07:04:59;4.47;;;3.80;;
7171;SDS011;3627;46.544;14.944;2023-05-07T07:07:26;4.75;;;3.50;;
7171;SDS011;3627;46.544;14.944;2023-05-07T07:09:52;5.10;;;3.75;;
7171;SDS011;3627;46.544;14.944;2023-05-07T07:12:18;3.58;;;3.28;;
7171;SDS011;3627;46.544;14.944;2023-05-07T07:14:45;3.80;;;3.40;;
7171;SDS011;3627;46.544;14.944;2023-05-07T07:17:11;3.75;;;3.40;;
7171;SDS011;3627;46.544;14.944;2023-05-07T07:19:37;4.35;;;3.95;;
7171;SDS011;3627;46.544;14.944;2023-05-07T07:22:05;3.90;;;3.50;;
7171;SDS011;3627;46.544;14.944;2023-05-07T07:24:32;4.22;;;3.78;;
7171;SDS011;3627;46.544;14.944;2023-05-07T07:26:58;4.45;;;3.92;;
7171;SDS011;3627;46.544;14.944;2023-05-07T07:29:25;4.90;;;3.58;;
7171;SDS011;3627;46.544;14.944;2023-05-07T07:31:52;3.80;;;3.40;;
7171;SDS011;3627;46.544;14.944;2023-05-07T07:34:18;4.30;;;3.83;;
7171;SDS011;3627;46.544;14.944;2023-05-07T07:36:44;3.67;;;3.38;;
7171;SDS011;3627;46.544;14.944;2023-05-07T07:39:12;3.83;;;3.45;;
7171;SDS011;3627;46.544;14.944;2023-05-07T07:41:38;5.20;;;3.45;;
7171;SDS011;3627;46.544;14.944;2023-05-07T07:44:05;3.60;;;3.30;;
7171;SDS011;3627;46.544;14.944;2023-05-07T07:46:32;3.83;;;3.42;;
7171;SDS011;3627;46.544;14.944;2023-05-07T07:48:58;3.75;;;3.45;;
7171;SDS011;3627;46.544;14.944;2023-05-07T07:51:25;3.47;;;3.17;;
7171;SDS011;3627;46.544;14.944;2023-05-07T07:53:51;6.85;;;3.70;;
7171;SDS011;3627;46.544;14.944;2023-05-07T07:56:19;5.15;;;4.07;;
7171;SDS011;3627;46.544;14.944;2023-05-07T07:58:45;4.28;;;3.67;;
7171;SDS011;3627;46.544;14.944;2023-05-07T08:01:12;4.15;;;3.70;;
7171;SDS011;3627;46.544;14.944;2023-05-07T08:03:38;3.78;;;3.40;;
7171;SDS011;3627;46.544;14.944;2023-05-07T08:06:04;4.47;;;3.22;;
7171;SDS011;3627;46.544;14.944;2023-05-07T08:08:31;3.95;;;3.53;;
7171;SDS011;3627;46.544;14.944;2023-05-07T08:10:57;3.70;;;3.40;;
7171;SDS011;3627;46.544;14.944;2023-05-07T08:13:25;3.53;;;3.20;;
7171;SDS011;3627;46.544;14.944;2023-05-07T08:15:52;3.95;;;3.47;;
7171;SDS011;3627;46.544;14.944;2023-05-07T08:18:18;3.75;;;3.08;;
7171;SDS011;3627;46.544;14.944;2023-05-07T08:20:44;3.47;;;3.17;;
7171;SDS011;3627;46.544;14.944;2023-05-07T08:23:11;3.58;;;3.03;;
7171;SDS011;3627;46.544;14.944;2023-05-07T08:25:37;3.90;;;2.78;;
7171;SDS011;3627;46.544;14.944;2023-05-07T08:28:04;3.03;;;2.72;;
7171;SDS011;3627;46.544;14.944;2023-05-07T08:30:31;6.30;;;3.25;;
7171;SDS011;3627;46.544;14.944;2023-05-07T08:32:58;3.17;;;2.97;;
7171;SDS011;3627;46.544;14.944;2023-05-07T08:35:24;4.43;;;3.10;;
7171;SDS011;3627;46.544;14.944;2023-05-07T08:37:52;3.30;;;3.00;;
7171;SDS011;3627;46.544;14.944;2023-05-07T08:40:18;3.30;;;2.97;;
7171;SDS011;3627;46.544;14.944;2023-05-07T08:42:44;2.88;;;2.58;;
7171;SDS011;3627;46.544;14.944;2023-05-07T08:45:12;3.20;;;2.90;;
7171;SDS011;3627;46.544;14.944;2023-05-07T08:47:42;2.63;;;2.42;;
7171;SDS011;3627;46.544;14.944;2023-05-07T08:50:10;3.33;;;2.88;;
7171;SDS011;3627;46.544;14.944;2023-05-07T08:52:36;2.42;;;2.22;;
7171;SDS011;3627;46.544;14.944;2023-05-07T08:55:03;2.75;;;2.45;;
7171;SDS011;3627;46.544;14.944;2023-05-07T08:57:29;4.85;;;2.92;;
7171;SDS011;3627;46.544;14.944;2023-05-07T08:59:56;2.90;;;2.40;;
7171;SDS011;3627;46.544;14.944;2023-05-07T09:02:22;3.88;;;2.38;;
7171;SDS011;3627;46.544;14.944;2023-05-07T09:04:50;2.95;;;2.30;;
7171;SDS011;3627;46.544;14.944;2023-05-07T09:07:18;2.38;;;2.08;;
7171;SDS011;3627;46.544;14.944;2023-05-07T09:09:44;2.30;;;2.10;;
7171;SDS011;3627;46.544;14.944;2023-05-07T09:12:11;2.47;;;2.28;;
7171;SDS011;3627;46.544;14.944;2023-05-07T09:14:37;2.85;;;2.28;;
7171;SDS011;3627;46.544;14.944;2023-05-07T09:17:04;2.20;;;2.10;;
7171;SDS011;3627;46.544;14.944;2023-05-07T09:19:30;1.83;;;1.67;;
7171;SDS011;3627;46.544;14.944;2023-05-07T09:21:59;2.00;;;1.90;;
7171;SDS011;3627;46.544;14.944;2023-05-07T09:24:26;2.05;;;1.90;;
7171;SDS011;3627;46.544;14.944;2023-05-07T09:26:53;2.38;;;2.10;;
7171;SDS011;3627;46.544;14.944;2023-05-07T09:29:20;3.95;;;2.00;;
7171;SDS011;3627;46.544;14.944;2023-05-07T09:31:46;2.22;;;1.75;;
7171;SDS011;3627;46.544;14.944;2023-05-07T09:34:13;2.90;;;2.35;;
7171;SDS011;3627;46.544;14.944;2023-05-07T09:36:39;4.20;;;1.95;;
7171;SDS011;3627;46.544;14.944;2023-05-07T09:39:07;2.25;;;2.00;;
7171;SDS011;3627;46.544;14.944;2023-05-07T09:41:36;3.35;;;2.45;;
7171;SDS011;3627;46.544;14.944;2023-05-07T09:44:09;2.50;;;2.30;;
7171;SDS011;3627;46.544;14.944;2023-05-07T09:46:36;2.78;;;2.42;;
7171;SDS011;3627;46.544;14.944;2023-05-07T09:49:02;2.55;;;2.28;;
7171;SDS011;3627;46.544;14.944;2023-05-07T09:51:33;4.13;;;2.78;;
7171;SDS011;3627;46.544;14.944;2023-05-07T09:54:04;3.03;;;2.60;;
7171;SDS011;3627;46.544;14.944;2023-05-07T09:56:32;3.50;;;3.20;;
7171;SDS011;3627;46.544;14.944;2023-05-07T09:59:00;3.13;;;2.67;;
7171;SDS011;3627;46.544;14.944;2023-05-07T10:01:26;3.15;;;2.42;;
7171;SDS011;3627;46.544;14.944;2023-05-07T10:03:53;3.00;;;2.70;;
7171;SDS011;3627;46.544;14.944;2023-05-07T10:06:20;3.28;;;2.97;;
7171;SDS011;3627;46.544;14.944;2023-05-07T10:08:46;5.72;;;5.22;;
7171;SDS011;3627;46.544;14.944;2023-05-07T10:11:14;3.10;;;2.80;;
7171;SDS011;3627;46.544;14.944;2023-05-07T10:13:42;3.38;;;2.90;;
7171;SDS011;3627;46.544;14.944;2023-05-07T10:16:09;3.47;;;3.17;;
7171;SDS011;3627;46.544;14.944;2023-05-07T10:18:35;3.03;;;2.83;;
7171;SDS011;3627;46.544;14.944;2023-05-07T10:21:04;9.85;;;7.90;;
7171;SDS011;3627;46.544;14.944;2023-05-07T10:23:32;4.63;;;4.10;;
7171;SDS011;3627;46.544;14.944;2023-05-07T10:25:59;2.70;;;2.50;;
7171;SDS011;3627;46.544;14.944;2023-05-07T10:28:27;3.37;;;3.07;;
7171;SDS011;3627;46.544;14.944;2023-05-07T10:30:58;3.20;;;2.90;;
7171;SDS011;3627;46.544;14.944;2023-05-07T10:33:28;4.10;;;3.30;;
7171;SDS011;3627;46.544;14.944;2023-05-07T10:35:55;4.82;;;2.85;;
7171;SDS011;3627;46.544;14.944;2023-05-07T10:38:23;2.92;;;2.72;;
7171;SDS011;3627;46.544;14.944;2023-05-07T10:40:50;3.70;;;3.00;;
7171;SDS011;3627;46.544;14.944;2023-05-07T10:43:17;4.25;;;3.17;;
7171;SDS011;3627;46.544;14.944;2023-05-07T10:45:43;3.30;;;3.00;;
7171;SDS011;3627;46.544;14.944;2023-05-07T10:48:11;2.85;;;2.65;;
7171;SDS011;3627;46.544;14.944;2023-05-07T10:50:38;3.40;;;3.10;;
7171;SDS011;3627;46.544;14.944;2023-05-07T10:53:21;3.78;;;3.30;;
7171;SDS011;3627;46.544;14.944;2023-05-07T10:55:51;6.38;;;3.15;;
7171;SDS011;3627;46.544;14.944;2023-05-07T10:58:24;4.72;;;3.00;;
7171;SDS011;3627;46.544;14.944;2023-05-07T11:00:55;4.43;;;2.90;;
7171;SDS011;3627;46.544;14.944;2023-05-07T11:03:23;3.50;;;3.20;;
7171;SDS011;3627;46.544;14.944;2023-05-07T11:06:08;5.10;;;3.08;;
7171;SDS011;3627;46.544;14.944;2023-05-07T11:11:19;3.53;;;3.22;;
7171;SDS011;3627;46.544;14.944;2023-05-07T11:13:46;6.38;;;3.15;;
7171;SDS011;3627;46.544;14.944;2023-05-07T11:16:16;2.97;;;2.78;;
7171;SDS011;3627;46.544;14.944;2023-05-07T11:18:47;3.97;;;2.95;;
7171;SDS011;3627;46.544;14.944;2023-05-07T11:21:17;4.45;;;3.25;;
7171;SDS011;3627;46.544;14.944;2023-05-07T11:23:58;4.30;;;3.58;;
7171;SDS011;3627;46.544;14.944;2023-05-07T11:26:24;4.50;;;3.40;;
7171;SDS011;3627;46.544;14.944;2023-05-07T11:28:51;5.75;;;3.70;;
7171;SDS011;3627;46.544;14.944;2023-05-07T11:31:20;4.13;;;3.83;;
7171;SDS011;3627;46.544;14.944;2023-05-07T11:33:48;4.10;;;3.70;;
7171;SDS011;3627;46.544;14.944;2023-05-07T11:36:15;3.90;;;3.40;;
7171;SDS011;3627;46.544;14.944;2023-05-07T11:38:42;5.32;;;4.35;;
7171;SDS011;3627;46.544;14.944;2023-05-07T11:41:08;4.93;;;3.80;;
7171;SDS011;3627;46.544;14.944;2023-05-07T11:43:35;3.95;;;3.20;;
7171;SDS011;3627;46.544;14.944;2023-05-07T11:46:04;4.00;;;3.70;;
7171;SDS011;3627;46.544;14.944;2023-05-07T11:48:31;5.45;;;3.80;;
7171;SDS011;3627;46.544;14.944;2023-05-07T11:51:01;5.50;;;4.70;;
7171;SDS011;3627;46.544;14.944;2023-05-07T11:53:28;4.30;;;3.95;;
7171;SDS011;3627;46.544;14.944;2023-05-07T11:56:00;3.97;;;3.63;;
7171;SDS011;3627;46.544;14.944;2023-05-07T11:58:31;8.43;;;3.85;;
7171;SDS011;3627;46.544;14.944;2023-05-07T12:00:58;4.25;;;3.85;;
7171;SDS011;3627;46.544;14.944;2023-05-07T12:03:24;4.15;;;3.75;;
7171;SDS011;3627;46.544;14.944;2023-05-07T12:05:51;4.05;;;3.75;;
7171;SDS011;3627;46.544;14.944;2023-05-07T12:08:19;4.45;;;4.03;;
7171;SDS011;3627;46.544;14.944;2023-05-07T12:10:46;4.50;;;4.10;;
7171;SDS011;3627;46.544;14.944;2023-05-07T12:13:15;5.40;;;3.75;;
7171;SDS011;3627;46.544;14.944;2023-05-07T12:15:42;5.18;;;4.68;;
7171;SDS011;3627;46.544;14.944;2023-05-07T12:18:08;4.00;;;3.70;;
7171;SDS011;3627;46.544;14.944;2023-05-07T12:20:35;9.50;;;3.75;;
7171;SDS011;3627;46.544;14.944;2023-05-07T12:23:01;5.25;;;3.88;;
7171;SDS011;3627;46.544;14.944;2023-05-07T12:25:31;4.70;;;3.90;;
7171;SDS011;3627;46.544;14.944;2023-05-07T12:27:57;3.70;;;3.40;;
7171;SDS011;3627;46.544;14.944;2023-05-07T12:30:26;4.20;;;3.80;;
7171;SDS011;3627;46.544;14.944;2023-05-07T12:32:52;4.18;;;3.80;;
7171;SDS011;3627;46.544;14.944;2023-05-07T12:35:25;4.88;;;3.92;;
7171;SDS011;3627;46.544;14.944;2023-05-07T12:37:54;6.25;;;4.38;;
7171;SDS011;3627;46.544;14.944;2023-05-07T12:40:20;3.70;;;3.40;;
7171;SDS011;3627;46.544;14.944;2023-05-07T12:42:48;4.25;;;3.85;;
7171;SDS011;3627;46.544;14.944;2023-05-07T12:45:19;4.43;;;4.05;;
7171;SDS011;3627;46.544;14.944;2023-05-07T12:47:46;3.83;;;3.53;;
7171;SDS011;3627;46.544;14.944;2023-05-07T12:50:12;4.38;;;3.80;;
7171;SDS011;3627;46.544;14.944;2023-05-07T12:52:39;5.00;;;4.20;;
7171;SDS011;3627;46.544;14.944;2023-05-07T12:55:06;4.15;;;3.75;;
7171;SDS011;3627;46.544;14.944;2023-05-07T12:57:37;4.55;;;4.07;;
7171;SDS011;3627;46.544;14.944;2023-05-07T13:00:05;4.15;;;3.75;;
7171;SDS011;3627;46.544;14.944;2023-05-07T13:02:32;4.38;;;3.92;;
7171;SDS011;3627;46.544;14.944;2023-05-07T13:04:58;4.50;;;4.10;;
7171;SDS011;3627;46.544;14.944;2023-05-07T13:07:25;4.80;;;3.92;;
7171;SDS011;3627;46.544;14.944;2023-05-07T13:09:51;4.35;;;3.95;;
7171;SDS011;3627;46.544;14.944;2023-05-07T13:12:17;5.78;;;4.03;;
7171;SDS011;3627;46.544;14.944;2023-05-07T13:14:44;4.30;;;3.85;;
7171;SDS011;3627;46.544;14.944;2023-05-07T13:17:12;5.47;;;3.97;;
7171;SDS011;3627;46.544;14.944;2023-05-07T13:19:38;9.23;;;5.32;;
7171;SDS011;3627;46.544;14.944;2023-05-07T13:22:04;4.45;;;3.92;;
7171;SDS011;3627;46.544;14.944;2023-05-07T13:24:31;3.67;;;3.38;;
7171;SDS011;3627;46.544;14.944;2023-05-07T13:26:57;4.53;;;3.65;;
7171;SDS011;3627;46.544;14.944;2023-05-07T13:29:24;5.15;;;4.10;;
7171;SDS011;3627;46.544;14.944;2023-05-07T13:31:54;4.70;;;4.30;;
7171;SDS011;3627;46.544;14.944;2023-05-07T13:34:22;4.43;;;4.03;;
7171;SDS011;3627;46.544;14.944;2023-05-07T13:36:49;3.72;;;3.40;;
7171;SDS011;3627;46.544;14.944;2023-05-07T13:39:16;8.15;;;5.50;;
7171;SDS011;3627;46.544;14.944;2023-05-07T13:41:42;4.00;;;3.70;;
7171;SDS011;3627;46.544;14.944;2023-05-07T13:44:08;5.70;;;4.10;;
7171;SDS011;3627;46.544;14.944;2023-05-07T13:46:35;6.45;;;3.90;;
7171;SDS011;3627;46.544;14.944;2023-05-07T13:49:01;5.05;;;3.72;;
7171;SDS011;3627;46.544;14.944;2023-05-07T13:51:29;4.25;;;3.58;;
7171;SDS011;3627;46.544;14.944;2023-05-07T13:53:55;3.95;;;3.42;;
7171;SDS011;3627;46.544;14.944;2023-05-07T13:56:23;3.92;;;3.53;;
7171;SDS011;3627;46.544;14.944;2023-05-07T13:58:49;4.20;;;3.80;;
7171;SDS011;3627;46.544;14.944;2023-05-07T14:01:16;4.30;;;3.90;;
7171;SDS011;3627;46.544;14.944;2023-05-07T14:03:42;10.77;;;8.75;;
7171;SDS011;3627;46.544;14.944;2023-05-07T14:06:09;5.72;;;4.22;;
7171;SDS011;3627;46.544;14.944;2023-05-07T14:08:36;4.63;;;3.60;;
7171;SDS011;3627;46.544;14.944;2023-05-07T14:11:03;11.10;;;9.52;;
7171;SDS011;3627;46.544;14.944;2023-05-07T14:13:29;4.78;;;4.13;;
7171;SDS011;3627;46.544;14.944;2023-05-07T14:15:56;4.30;;;3.90;;
7171;SDS011;3627;46.544;14.944;2023-05-07T14:18:22;5.43;;;4.35;;
7171;SDS011;3627;46.544;14.944;2023-05-07T14:20:48;5.25;;;3.72;;
7171;SDS011;3627;46.544;14.944;2023-05-07T14:23:15;5.18;;;4.00;;
7171;SDS011;3627;46.544;14.944;2023-05-07T14:25:44;6.13;;;4.15;;
7171;SDS011;3627;46.544;14.944;2023-05-07T14:28:12;4.30;;;3.83;;
7171;SDS011;3627;46.544;14.944;2023-05-07T14:30:38;4.90;;;3.90;;
7171;SDS011;3627;46.544;14.944;2023-05-07T14:33:05;5.13;;;3.75;;
7171;SDS011;3627;46.544;14.944;2023-05-07T14:35:31;5.35;;;4.18;;
7171;SDS011;3627;46.544;14.944;2023-05-07T14:37:58;3.60;;;3.30;;
7171;SDS011;3627;46.544;14.944;2023-05-07T14:40:24;6.13;;;3.63;;
7171;SDS011;3627;46.544;14.944;2023-05-07T14:45:18;3.90;;;3.50;;
7171;SDS011;3627;46.544;14.944;2023-05-07T14:47:45;5.07;;;4.30;;
7171;SDS011;3627;46.544;14.944;2023-05-07T14:50:11;4.10;;;3.55;;
7171;SDS011;3627;46.544;14.944;2023-05-07T14:52:37;5.22;;;3.95;;
7171;SDS011;3627;46.544;14.944;2023-05-07T14:55:04;5.45;;;3.75;;
7171;SDS011;3627;46.544;14.944;2023-05-07T14:57:31;4.25;;;3.65;;
7171;SDS011;3627;46.544;14.944;2023-05-07T14:59:59;4.13;;;3.42;;
7171;SDS011;3627;46.544;14.944;2023-05-07T15:02:27;4.95;;;3.95;;
7171;SDS011;3627;46.544;14.944;2023-05-07T15:04:54;6.13;;;4.57;;
7171;SDS011;3627;46.544;14.944;2023-05-07T15:07:20;25.08;;;20.13;;